Time;durP1;ratioP1;P1;durP2;ratioP2;P2;SDS_P1;SDS_P2;PMS_P1;PMS_P2;Temp;Humidity;BMP_temperature;BMP_pressure;BME280_temperature;BME280_humidity;BME280_pressure;Samples;Min_cycle;Max_cycle;Signal;HPM_P1;HPM_P2
2021/06/05 00:00:45;;;;;;;7.22;6.20;;;17.40;99.90;;;;;;5071642;28;20031;-74
2021/06/05 00:03:12;;;;;;;6.13;5.60;;;17.70;99.90;;;;;;5069947;28;20051;-75
2021/06/05 00:05:58;;;;;;;5.10;4.60;;;17.80;99.90;;;;;;5071024;28;20033;-73
2021/06/05 00:08:27;;;;;;;5.50;5.00;;;17.80;99.90;;;;;;5069955;28;20020;-74
2021/06/05 00:10:56;;;;;;;6.07;4.78;;;17.90;99.90;;;;;;5069628;28;20025;-73
2021/06/05 00:13:28;;;;;;;5.80;5.25;;;17.90;99.90;;;;;;5053059;28;20017;-73
2021/06/05 00:15:55;;;;;;;5.40;4.85;;;17.90;99.90;;;;;;5061499;28;20399;-73
2021/06/05 00:18:21;;;;;;;5.78;4.43;;;18.00;99.90;;;;;;5054193;28;20619;-73
2021/06/05 00:20:48;;;;;;;7.78;4.70;;;18.10;99.90;;;;;;5071214;28;20097;-72
2021/06/05 00:23:17;;;;;;;7.18;4.70;;;18.10;99.90;;;;;;5071505;28;20029;-73
2021/06/05 00:25:43;;;;;;;10.00;4.85;;;18.00;99.90;;;;;;5070374;28;20059;-73
2021/06/05 00:28:09;;;;;;;6.88;4.47;;;17.90;99.90;;;;;;5055255;28;20052;-73
2021/06/05 00:30:35;;;;;;;4.93;4.30;;;17.90;99.90;;;;;;5053290;28;20115;-74
2021/06/05 00:33:02;;;;;;;5.55;4.55;;;17.80;99.90;;;;;;5071539;28;20426;-73
2021/06/05 00:35:29;;;;;;;7.70;5.28;;;17.50;99.90;;;;;;5071415;28;20025;-73
2021/06/05 00:37:56;;;;;;;6.70;6.00;;;17.30;99.90;;;;;;5071525;28;20035;-74
2021/06/05 00:40:24;;;;;;;8.43;6.15;;;16.70;99.90;;;;;;5071178;28;20027;-73
2021/06/05 00:42:51;;;;;;;8.48;5.90;;;16.50;99.90;;;;;;5071492;28;20016;-73
2021/06/05 00:45:19;;;;;;;6.72;5.38;;;16.40;99.90;;;;;;5071073;28;20035;-73
2021/06/05 00:47:44;;;;;;;8.63;4.93;;;16.80;99.90;;;;;;5071823;28;20032;-74
2021/06/05 00:50:11;;;;;;;6.05;5.50;;;17.10;99.90;;;;;;5071083;28;20017;-74
2021/06/05 00:52:39;;;;;;;7.18;5.38;;;17.00;99.90;;;;;;5071381;28;20024;-75
2021/06/05 00:55:08;;;;;;;8.27;5.32;;;17.00;99.90;;;;;;5053485;28;20020;-74
2021/06/05 00:57:33;;;;;;;5.63;5.07;;;16.90;99.90;;;;;;5053494;28;20060;-73
2021/06/05 00:59:59;;;;;;;6.70;5.05;;;17.10;99.90;;;;;;5071250;28;20592;-74
2021/06/05 01:02:25;;;;;;;6.22;5.53;;;17.10;99.90;;;;;;5106687;23;20044;-74
2021/06/05 01:04:50;;;;;;;5.95;5.43;;;17.00;99.90;;;;;;5071366;28;20574;-73
2021/06/05 01:07:24;;;;;;;5.57;4.93;;;16.90;99.90;;;;;;5089583;28;20028;-72
2021/06/05 01:09:58;;;;;;;6.53;5.63;;;16.70;99.90;;;;;;5089390;28;20099;-74
2021/06/05 01:12:47;;;;;;;5.38;4.88;;;16.70;99.90;;;;;;5071405;28;20103;-74
2021/06/05 01:15:17;;;;;;;6.07;5.47;;;16.90;99.90;;;;;;5071541;28;20024;-74
2021/06/05 01:17:47;;;;;;;6.65;5.50;;;16.90;99.90;;;;;;5071384;28;20035;-73
2021/06/05 01:20:18;;;;;;;6.70;5.65;;;17.00;99.90;;;;;;5090960;28;20529;-73
2021/06/05 01:23:08;;;;;;;8.15;5.72;;;16.90;99.90;;;;;;5091235;28;20032;-73
2021/06/05 01:26:00;;;;;;;6.53;5.88;;;16.80;99.90;;;;;;5091216;28;20040;-74
2021/06/05 01:28:49;;;;;;;6.63;6.03;;;16.80;99.90;;;;;;5077629;28;20122;-74
2021/06/05 01:31:19;;;;;;;7.55;6.85;;;17.00;99.90;;;;;;5073226;28;20407;-74
2021/06/05 01:33:45;;;;;;;8.25;7.28;;;17.10;99.90;;;;;;5091062;28;20028;-76
2021/06/05 01:36:13;;;;;;;9.55;7.63;;;16.90;99.90;;;;;;5091311;28;20399;-74
2021/06/05 01:38:43;;;;;;;9.73;7.43;;;17.00;99.90;;;;;;5091305;28;20028;-75
2021/06/05 01:41:09;;;;;;;11.88;8.05;;;16.90;99.90;;;;;;5101472;28;20024;-74
2021/06/05 01:43:36;;;;;;;8.45;7.60;;;16.80;99.90;;;;;;5097922;28;20030;-73
2021/06/05 01:46:02;;;;;;;8.77;7.38;;;16.50;99.90;;;;;;5082828;28;20032;-74
2021/06/05 01:48:28;;;;;;;10.60;7.55;;;16.50;99.90;;;;;;5108766;28;20027;-74
2021/06/05 01:50:54;;;;;;;8.98;7.70;;;16.30;99.90;;;;;;5100792;28;20093;-73
2021/06/05 01:53:25;;;;;;;8.60;6.80;;;16.10;99.90;;;;;;5108418;28;20011;-74
2021/06/05 01:56:11;;;;;;;8.35;7.50;;;16.10;99.90;;;;;;5096752;28;20031;-74
2021/06/05 01:58:37;;;;;;;8.75;7.95;;;16.40;99.90;;;;;;5093154;28;20089;-74
2021/06/05 02:01:03;;;;;;;9.38;8.43;;;16.10;99.90;;;;;;5094405;28;20036;-72
2021/06/05 02:03:29;;;;;;;9.93;8.93;;;15.70;99.90;;;;;;5101193;28;20042;-72
2021/06/05 02:05:55;;;;;;;8.50;7.68;;;15.60;99.90;;;;;;5083414;28;20024;-73
2021/06/05 02:08:26;;;;;;;9.20;8.27;;;15.50;99.90;;;;;;5090031;28;20107;-72
2021/06/05 02:10:56;;;;;;;9.82;7.95;;;15.90;99.90;;;;;;5094494;28;20050;-73
2021/06/05 02:13:28;;;;;;;9.70;7.85;;;16.30;99.90;;;;;;5114796;28;20020;-72
2021/06/05 02:15:57;;;;;;;9.50;8.50;;;16.60;99.90;;;;;;5114805;28;20106;-73
2021/06/05 02:18:28;;;;;;;10.10;9.13;;;16.50;99.90;;;;;;5105948;28;20070;-72
2021/06/05 02:21:15;;;;;;;10.35;9.32;;;16.30;99.90;;;;;;5075834;28;20020;-73
2021/06/05 02:23:48;;;;;;;9.23;8.32;;;16.00;99.90;;;;;;5076087;28;20031;-73
2021/06/05 02:26:17;;;;;;;9.93;8.57;;;16.10;99.90;;;;;;5094157;28;20031;-76
2021/06/05 02:28:45;;;;;;;10.63;9.30;;;16.30;99.90;;;;;;5094090;28;20016;-74
2021/06/05 02:31:12;;;;;;;10.00;9.05;;;16.30;99.90;;;;;;5114224;28;20058;-73
2021/06/05 02:33:38;;;;;;;10.30;9.30;;;16.20;99.90;;;;;;5100260;28;20024;-75
2021/06/05 02:36:06;;;;;;;9.80;8.80;;;16.00;99.90;;;;;;5094047;28;20074;-75
2021/06/05 02:38:33;;;;;;;9.70;8.70;;;16.20;99.90;;;;;;5095096;28;20043;-75
2021/06/05 02:40:59;;;;;;;9.25;8.35;;;16.30;99.90;;;;;;5105744;28;20487;-75
2021/06/05 02:43:29;;;;;;;8.75;7.85;;;16.30;99.90;;;;;;5095323;28;20043;-73
2021/06/05 02:46:03;;;;;;;8.88;7.60;;;16.20;99.90;;;;;;5105085;28;20154;-74
2021/06/05 02:48:46;;;;;;;8.55;7.18;;;16.30;99.90;;;;;;5093652;28;20479;-75
2021/06/05 02:51:13;;;;;;;8.98;7.30;;;16.30;99.90;;;;;;5093579;28;20020;-74
2021/06/05 02:53:39;;;;;;;8.43;7.07;;;16.30;99.90;;;;;;5093655;28;20020;-75
2021/06/05 02:56:05;;;;;;;8.50;7.55;;;16.40;99.90;;;;;;5075827;28;20414;-73
2021/06/05 02:58:31;;;;;;;10.27;8.68;;;16.40;99.90;;;;;;5093684;28;20446;-74
2021/06/05 03:00:57;;;;;;;11.52;8.80;;;16.40;99.90;;;;;;5087805;28;20104;-75
2021/06/05 03:03:22;;;;;;;9.40;7.75;;;16.30;99.90;;;;;;5094045;28;20026;-76
2021/06/05 03:05:50;;;;;;;8.32;7.50;;;16.30;99.90;;;;;;5083328;28;20028;-75
2021/06/05 03:08:23;;;;;;;10.10;9.18;;;16.30;99.90;;;;;;5089029;28;20029;-73
2021/06/05 03:10:49;;;;;;;11.50;10.35;;;16.00;99.90;;;;;;5073952;28;20020;-75
2021/06/05 03:13:16;;;;;;;12.55;11.10;;;15.40;99.90;;;;;;5078727;28;20444;-76
2021/06/05 03:15:41;;;;;;;12.35;11.13;;;14.80;99.90;;;;;;5093241;28;20119;-74
2021/06/05 03:18:07;;;;;;;12.40;11.30;;;14.70;99.90;;;;;;5093333;28;20099;-76
2021/06/05 03:20:37;;;;;;;10.82;9.63;;;14.70;99.90;;;;;;5093052;28;20024;-75
2021/06/05 03:23:05;;;;;;;10.13;9.10;;;15.10;99.90;;;;;;5093264;28;20024;-76
2021/06/05 03:25:31;;;;;;;9.57;8.70;;;15.40;99.90;;;;;;5089502;28;20030;-76
2021/06/05 03:27:58;;;;;;;9.95;8.95;;;15.60;99.90;;;;;;5095261;28;20023;-76
2021/06/05 03:30:25;;;;;;;9.00;8.20;;;15.60;99.90;;;;;;5098509;28;20026;-76
2021/06/05 03:32:50;;;;;;;10.07;7.78;;;15.60;99.90;;;;;;5087401;28;20444;-75
2021/06/05 03:35:16;;;;;;;9.75;7.45;;;15.60;99.90;;;;;;5107690;28;20043;-74
2021/06/05 03:37:41;;;;;;;8.38;7.53;;;15.70;99.90;;;;;;5086951;28;20036;-76
2021/06/05 03:40:11;;;;;;;10.38;7.70;;;15.80;99.90;;;;;;5107231;28;20062;-76
2021/06/05 03:42:36;;;;;;;8.20;7.32;;;15.90;99.90;;;;;;5104519;28;20085;-75
2021/06/05 03:45:04;;;;;;;9.10;7.03;;;16.10;99.90;;;;;;5094222;28;20032;-74
2021/06/05 03:47:30;;;;;;;8.93;7.00;;;16.00;99.90;;;;;;5104378;28;20035;-73
2021/06/05 03:49:55;;;;;;;9.30;7.20;;;16.10;99.90;;;;;;5094352;28;20064;-75
2021/06/05 03:52:22;;;;;;;9.00;6.70;;;16.20;99.90;;;;;;5112939;28;20107;-73
2021/06/05 03:54:53;;;;;;;11.52;7.32;;;16.10;99.90;;;;;;5088527;28;20024;-74
2021/06/05 03:57:20;;;;;;;9.82;6.90;;;16.10;99.90;;;;;;5101862;28;20074;-74
2021/06/05 03:59:47;;;;;;;8.30;6.95;;;16.30;99.90;;;;;;5096113;28;20039;-72
2021/06/05 04:02:13;;;;;;;7.82;7.13;;;16.30;99.90;;;;;;5101956;28;20040;-73
2021/06/05 04:04:40;;;;;;;8.27;7.47;;;16.40;99.90;;;;;;5109963;28;20106;-74
2021/06/05 04:07:09;;;;;;;9.40;7.60;;;16.50;99.90;;;;;;5101943;28;20027;-75
2021/06/05 04:09:35;;;;;;;9.98;7.68;;;16.50;99.90;;;;;;5077434;28;20162;-75
2021/06/05 04:12:02;;;;;;;8.32;7.55;;;16.60;99.90;;;;;;5102010;28;20012;-73
2021/06/05 04:14:27;;;;;;;9.02;7.90;;;16.40;99.90;;;;;;5109401;28;20383;-75
2021/06/05 04:16:53;;;;;;;8.18;7.47;;;16.30;99.90;;;;;;5092187;28;20017;-76
2021/06/05 04:19:18;;;;;;;7.45;6.75;;;16.20;99.90;;;;;;5080309;28;20019;-73
2021/06/05 04:21:44;;;;;;;8.85;7.78;;;16.20;99.90;;;;;;5102084;28;20024;-73
2021/06/05 04:24:09;;;;;;;9.68;8.68;;;16.30;99.90;;;;;;5105579;28;20438;-74
2021/06/05 04:26:35;;;;;;;10.18;9.07;;;15.80;99.90;;;;;;5101803;28;20032;-74
2021/06/05 04:29:01;;;;;;;9.02;8.13;;;15.70;99.90;;;;;;5112386;28;20024;-74
2021/06/05 04:31:26;;;;;;;8.50;7.60;;;15.90;99.90;;;;;;5101901;28;20026;-74
2021/06/05 04:33:52;;;;;;;8.68;7.68;;;16.30;99.90;;;;;;5105609;28;20119;-76
2021/06/05 04:36:17;;;;;;;8.43;7.63;;;16.60;99.90;;;;;;5101503;28;20106;-75
2021/06/05 04:38:43;;;;;;;10.35;9.35;;;16.90;99.90;;;;;;5098626;28;20056;-75
2021/06/05 04:41:12;;;;;;;11.18;9.32;;;17.00;99.90;;;;;;5111817;28;20020;-74
2021/06/05 04:43:38;;;;;;;11.52;10.32;;;17.10;99.90;;;;;;5108755;28;20047;-73
2021/06/05 04:46:04;;;;;;;13.40;12.00;;;17.00;99.90;;;;;;5101866;28;20474;-76
2021/06/05 04:48:30;;;;;;;14.80;12.05;;;16.50;99.90;;;;;;5080418;28;20020;-76
2021/06/05 04:50:56;;;;;;;14.55;12.25;;;16.50;99.90;;;;;;5102043;28;20364;-76
2021/06/05 04:53:23;;;;;;;12.77;11.00;;;16.60;99.90;;;;;;5087388;28;20035;-75
2021/06/05 04:55:49;;;;;;;13.70;12.30;;;16.70;99.90;;;;;;5091711;28;20027;-76
2021/06/05 04:58:16;;;;;;;15.77;13.15;;;16.60;99.90;;;;;;5090872;28;20015;-77
2021/06/05 05:00:44;;;;;;;13.98;12.45;;;16.50;99.90;;;;;;5082637;28;20028;-75
2021/06/05 05:03:13;;;;;;;13.20;11.90;;;16.60;99.90;;;;;;5103199;28;20024;-75
2021/06/05 05:05:40;;;;;;;14.02;12.63;;;16.60;99.90;;;;;;5102994;28;20547;-76
2021/06/05 05:08:07;;;;;;;16.17;14.10;;;16.60;99.90;;;;;;5097914;28;20023;-76
2021/06/05 05:10:37;;;;;;;14.82;13.43;;;16.50;99.90;;;;;;5081814;28;20062;-76
2021/06/05 05:13:04;;;;;;;14.73;12.85;;;16.50;99.90;;;;;;5105111;28;20104;-76
2021/06/05 05:15:30;;;;;;;15.32;13.73;;;16.60;99.90;;;;;;5103894;28;20055;-76
2021/06/05 05:17:56;;;;;;;15.68;14.00;;;16.80;99.90;;;;;;5080129;28;20059;-76
2021/06/05 05:20:27;;;;;;;17.95;16.13;;;16.70;99.90;;;;;;5099144;28;20032;-76
2021/06/05 05:22:53;;;;;;;17.75;15.95;;;16.80;99.90;;;;;;5086892;28;20028;-76
2021/06/05 05:25:19;;;;;;;17.40;15.55;;;16.70;99.90;;;;;;5086390;28;20111;-74
2021/06/05 05:27:45;;;;;;;18.30;16.38;;;16.80;99.90;;;;;;5079874;28;20019;-75
2021/06/05 05:30:16;;;;;;;18.17;16.27;;;17.10;99.90;;;;;;5098833;28;20024;-76
2021/06/05 05:32:42;;;;;;;17.52;15.52;;;17.00;99.90;;;;;;5085853;28;20019;-76
2021/06/05 05:35:08;;;;;;;17.27;15.48;;;17.10;99.90;;;;;;5101808;28;20123;-75
2021/06/05 05:37:34;;;;;;;18.17;16.27;;;17.00;99.90;;;;;;5095046;28;20024;-73
2021/06/05 05:39:59;;;;;;;16.73;15.02;;;17.00;99.90;;;;;;5094952;28;20035;-73
2021/06/05 05:42:25;;;;;;;16.50;14.80;;;17.20;99.90;;;;;;5095012;28;20544;-73
2021/06/05 05:44:50;;;;;;;16.88;15.20;;;17.40;99.90;;;;;;5094938;28;20611;-73
2021/06/05 05:47:16;;;;;;;18.35;16.55;;;17.60;99.90;;;;;;5095016;28;20505;-73
2021/06/05 05:49:41;;;;;;;18.27;16.40;;;17.50;99.90;;;;;;5094685;28;20056;-73
2021/06/05 05:52:07;;;;;;;18.50;16.70;;;17.50;99.90;;;;;;5094850;28;20542;-73
2021/06/05 05:54:33;;;;;;;18.50;16.52;;;17.50;99.90;;;;;;5104672;28;20099;-73
2021/06/05 05:56:58;;;;;;;18.77;16.98;;;17.60;99.90;;;;;;5081432;28;20026;-73
2021/06/05 05:59:24;;;;;;;18.83;16.92;;;17.50;99.90;;;;;;5108328;28;20436;-73
2021/06/05 06:01:49;;;;;;;19.23;17.15;;;17.40;99.90;;;;;;5083125;28;20106;-72
2021/06/05 06:04:15;;;;;;;19.30;17.23;;;17.40;99.90;;;;;;5101631;28;20036;-73
2021/06/05 06:06:41;;;;;;;20.73;18.52;;;17.60;99.90;;;;;;5114751;28;20412;-72
2021/06/05 06:09:08;;;;;;;19.63;16.98;;;18.00;99.90;;;;;;5101431;28;20043;-72
2021/06/05 06:11:33;;;;;;;16.98;15.25;;;18.30;99.90;;;;;;5107956;28;20070;-73
2021/06/05 06:14:00;;;;;;;15.85;14.23;;;18.70;99.90;;;;;;5094639;28;20115;-71
2021/06/05 06:16:26;;;;;;;16.15;14.55;;;19.00;99.90;;;;;;5083068;28;20024;-72
2021/06/05 06:18:52;;;;;;;17.20;15.50;;;19.10;99.90;;;;;;5101371;28;20019;-72
2021/06/05 06:21:21;;;;;;;15.80;13.88;;;19.00;99.90;;;;;;5108012;28;20394;-73
2021/06/05 06:23:48;;;;;;;17.05;15.00;;;19.10;99.90;;;;;;5089631;28;20034;-72
2021/06/05 06:26:18;;;;;;;16.50;14.80;;;19.20;99.90;;;;;;5082943;28;20076;-72
2021/06/05 06:28:44;;;;;;;20.27;14.82;;;19.20;99.90;;;;;;5095390;28;20024;-72
2021/06/05 06:31:12;;;;;;;15.10;13.50;;;19.20;99.90;;;;;;5101706;28;20379;-72
2021/06/05 06:33:38;;;;;;;16.90;15.05;;;19.20;99.90;;;;;;5096154;28;20026;-73
2021/06/05 06:36:05;;;;;;;18.38;16.35;;;19.30;99.90;;;;;;5114499;28;20024;-73
2021/06/05 06:38:35;;;;;;;18.20;16.38;;;18.90;99.90;;;;;;5099769;28;20467;-73
2021/06/05 06:41:03;;;;;;;20.55;17.13;;;18.90;99.90;;;;;;5093774;28;20032;-74
2021/06/05 06:43:30;;;;;;;17.50;15.70;;;19.10;99.90;;;;;;5109056;28;20076;-73
2021/06/05 06:45:56;;;;;;;19.00;16.83;;;19.20;99.90;;;;;;5105348;28;20077;-73
2021/06/05 06:48:22;;;;;;;20.88;17.45;;;19.00;99.90;;;;;;5088268;28;20027;-73
2021/06/05 06:50:48;;;;;;;17.20;15.27;;;18.90;99.90;;;;;;5102667;28;20016;-74
2021/06/05 06:53:14;;;;;;;16.85;15.23;;;19.30;99.90;;;;;;5114218;28;20517;-74
2021/06/05 06:55:40;;;;;;;18.25;16.35;;;19.30;99.90;;;;;;5091358;28;20031;-74
2021/06/05 06:58:06;;;;;;;16.48;14.75;;;19.60;99.90;;;;;;5089558;28;20028;-74
2021/06/05 07:00:35;;;;;;;20.27;16.38;;;19.60;99.90;;;;;;5084636;28;20031;-73
2021/06/05 07:03:01;;;;;;;16.77;15.07;;;19.70;99.90;;;;;;5111574;28;20047;-73
2021/06/05 07:05:26;;;;;;;17.15;13.73;;;19.90;99.90;;;;;;5085743;28;20020;-74
2021/06/05 07:08:04;;;;;;;18.35;15.68;;;20.40;99.90;;;;;;5109879;28;20115;-74
2021/06/05 07:10:30;;;;;;;16.45;14.73;;;20.40;99.90;;;;;;5102421;28;20019;-73
2021/06/05 07:12:55;;;;;;;17.25;15.57;;;20.80;99.90;;;;;;5088779;28;20103;-74
2021/06/05 07:15:21;;;;;;;16.45;14.85;;;20.80;99.90;;;;;;5104012;28;20074;-74
2021/06/05 07:17:47;;;;;;;17.90;15.93;;;20.80;99.90;;;;;;5099831;28;20027;-74
2021/06/05 07:20:13;;;;;;;17.55;15.27;;;20.60;99.90;;;;;;5084533;28;20024;-74
2021/06/05 07:22:39;;;;;;;15.73;13.27;;;20.50;99.90;;;;;;5096875;28;20024;-73
2021/06/05 07:25:05;;;;;;;15.40;13.80;;;20.80;99.90;;;;;;5102764;28;20492;-74
2021/06/05 07:27:30;;;;;;;13.25;12.05;;;20.70;99.90;;;;;;5078520;28;20030;-74
2021/06/05 07:29:56;;;;;;;13.18;11.88;;;20.60;99.90;;;;;;5102575;28;20073;-74
2021/06/05 07:32:21;;;;;;;15.77;11.38;;;20.70;99.90;;;;;;5106631;28;20036;-74
2021/06/05 07:34:47;;;;;;;12.80;11.50;;;20.30;99.90;;;;;;5103144;28;20038;-74
2021/06/05 07:37:13;;;;;;;11.73;10.57;;;20.30;99.90;;;;;;5078099;28;20027;-71
2021/06/05 07:39:39;;;;;;;11.75;10.55;;;20.60;99.90;;;;;;5092692;28;20024;-74
2021/06/05 07:42:07;;;;;;;12.23;11.13;;;20.70;99.90;;;;;;5106344;28;20024;-73
2021/06/05 07:44:33;;;;;;;10.82;9.73;;;20.80;99.90;;;;;;5102790;28;20031;-74
2021/06/05 07:47:00;;;;;;;11.27;10.05;;;21.00;99.90;;;;;;5095813;28;20020;-74
2021/06/05 07:49:29;;;;;;;10.90;9.77;;;21.20;99.90;;;;;;5103306;28;20471;-74
2021/06/05 07:51:55;;;;;;;11.45;9.52;;;21.30;99.90;;;;;;5108713;28;20395;-74
2021/06/05 07:54:21;;;;;;;9.85;8.80;;;21.50;99.90;;;;;;5101193;28;20015;-74
2021/06/05 07:56:49;;;;;;;9.65;8.70;;;21.20;99.90;;;;;;5091878;28;20111;-72
2021/06/05 07:59:17;;;;;;;9.93;8.93;;;21.50;99.90;;;;;;5092359;28;20058;-74
2021/06/05 08:01:43;;;;;;;8.88;7.97;;;21.80;99.90;;;;;;5092171;28;20032;-74
2021/06/05 08:04:08;;;;;;;9.48;8.40;;;22.10;99.90;;;;;;5104800;28;20027;-74
2021/06/05 08:06:34;;;;;;;8.93;7.97;;;21.90;99.90;;;;;;5099086;28;20031;-74
2021/06/05 08:09:00;;;;;;;8.98;7.90;;;22.00;99.90;;;;;;5112446;28;20081;-74
2021/06/05 08:11:25;;;;;;;9.35;7.95;;;21.90;99.90;;;;;;5092916;28;20390;-75
2021/06/05 08:13:51;;;;;;;9.32;8.43;;;21.70;99.90;;;;;;5104890;28;20032;-74
2021/06/05 08:16:16;;;;;;;11.50;8.57;;;21.80;99.90;;;;;;5094224;28;20459;-73
2021/06/05 08:18:42;;;;;;;11.52;7.70;;;21.70;99.90;;;;;;5112490;28;20054;-75
2021/06/05 08:21:12;;;;;;;7.70;7.00;;;21.60;99.90;;;;;;5093668;28;20047;-72
2021/06/05 08:23:38;;;;;;;7.07;6.38;;;21.80;99.90;;;;;;5094134;28;20501;-74
2021/06/05 08:26:08;;;;;;;8.05;6.10;;;21.80;99.90;;;;;;5098494;28;20470;-74
2021/06/05 08:28:34;;;;;;;6.28;5.57;;;21.90;99.90;;;;;;5080385;28;20162;-75
2021/06/05 08:31:03;;;;;;;6.43;5.80;;;21.80;99.90;;;;;;5093908;28;20068;-74
2021/06/05 08:33:29;;;;;;;10.88;6.40;;;21.80;99.90;;;;;;5098759;28;20020;-74
2021/06/05 08:35:55;;;;;;;6.63;6.03;;;21.90;99.90;;;;;;5104985;28;20031;-74
2021/06/05 08:38:25;;;;;;;10.68;6.78;;;21.80;99.90;;;;;;5105448;28;20390;-74
2021/06/05 08:41:04;;;;;;;6.82;6.13;;;21.50;99.90;;;;;;5091692;28;20078;-74
2021/06/05 08:43:48;;;;;;;7.13;6.43;;;21.80;99.90;;;;;;5094928;28;20035;-74
2021/06/05 08:46:19;;;;;;;7.90;6.80;;;22.20;99.90;;;;;;5112071;28;20026;-74
2021/06/05 08:48:45;;;;;;;7.60;6.85;;;22.10;99.90;;;;;;5098372;28;20024;-74
2021/06/05 08:51:22;;;;;;;7.40;6.70;;;22.40;99.90;;;;;;5099062;28;20024;-74
2021/06/05 08:53:48;;;;;;;8.48;6.50;;;22.50;99.90;;;;;;5086528;28;20478;-74
2021/06/05 08:56:24;;;;;;;7.50;6.80;;;22.30;99.90;;;;;;5079376;28;20028;-72
2021/06/05 08:58:56;;;;;;;7.85;6.28;;;22.20;99.90;;;;;;5082336;28;20429;-74
2021/06/05 09:01:26;;;;;;;6.97;5.78;;;22.30;99.90;;;;;;5090758;28;20570;-74
2021/06/05 09:03:59;;;;;;;6.38;5.70;;;22.70;99.90;;;;;;5101757;28;20019;-73
2021/06/05 09:06:34;;;;;;;6.50;5.90;;;22.50;99.90;;;;;;5098741;28;20020;-74
2021/06/05 09:09:06;;;;;;;7.50;6.47;;;22.80;99.90;;;;;;5103758;28;20453;-75
2021/06/05 09:11:32;;;;;;;7.68;6.68;;;23.10;99.90;;;;;;5091092;28;20024;-74
2021/06/05 09:13:59;;;;;;;7.53;5.80;;;22.70;99.90;;;;;;5108885;28;20095;-74
2021/06/05 09:16:35;;;;;;;6.57;5.97;;;22.50;99.90;;;;;;5102212;28;20024;-74
2021/06/05 09:19:06;;;;;;;8.85;5.88;;;22.80;99.90;;;;;;5082804;28;20059;-75
2021/06/05 09:21:43;;;;;;;6.50;5.82;;;22.70;99.90;;;;;;5095608;28;20028;-74
2021/06/05 09:24:21;;;;;;;6.80;6.20;;;23.10;99.90;;;;;;5091336;28;20112;-74
2021/06/05 09:27:08;;;;;;;7.00;6.30;;;23.00;99.90;;;;;;5107242;28;20066;-74
2021/06/05 09:29:50;;;;;;;6.00;5.50;;;23.10;99.90;;;;;;5107723;28;20020;-74
2021/06/05 09:32:24;;;;;;;6.90;6.20;;;22.90;99.90;;;;;;5109048;28;20020;-74
2021/06/05 09:35:14;;;;;;;5.72;5.15;;;22.90;99.90;;;;;;5087913;28;20062;-72
2021/06/05 09:37:54;;;;;;;6.72;5.10;;;22.90;99.90;;;;;;5082557;28;20012;-74
2021/06/05 09:40:20;;;;;;;9.13;4.68;;;23.20;99.90;;;;;;5097840;28;20024;-74
2021/06/05 09:42:53;;;;;;;5.68;4.93;;;23.30;99.90;;;;;;5105769;28;20020;-74
2021/06/05 09:45:25;;;;;;;5.07;4.30;;;23.10;99.90;;;;;;5112627;28;20030;-75
2021/06/05 09:47:51;;;;;;;5.72;4.38;;;23.40;99.90;;;;;;5115258;28;20479;-75
2021/06/05 09:50:20;;;;;;;6.53;4.40;;;23.70;99.90;;;;;;5083237;28;20026;-75
2021/06/05 09:52:46;;;;;;;5.18;4.45;;;23.80;99.90;;;;;;5085085;28;20106;-75
2021/06/05 09:55:14;;;;;;;5.43;4.60;;;23.90;99.90;;;;;;5105137;28;20120;-73
2021/06/05 09:57:42;;;;;;;5.15;4.20;;;24.00;99.90;;;;;;5095348;28;20028;-76
2021/06/05 10:00:23;;;;;;;4.78;3.97;;;24.20;99.90;;;;;;5108425;28;20052;-75
2021/06/05 10:02:51;;;;;;;4.97;4.22;;;24.10;99.90;;;;;;5094623;28;20089;-75
2021/06/05 10:05:36;;;;;;;6.40;4.30;;;24.00;99.90;;;;;;5088383;28;20024;-75
2021/06/05 10:08:37;;;;;;;4.85;4.00;;;23.90;99.90;;;;;;5094704;28;20555;-75
2021/06/05 10:11:41;;;;;;;4.60;4.20;;;24.00;99.90;;;;;;5108180;28;20019;-75
2021/06/05 10:14:13;;;;;;;4.35;3.95;;;24.20;99.90;;;;;;5088872;28;20406;-75
2021/06/05 10:16:43;;;;;;;4.78;4.28;;;24.20;99.90;;;;;;5084538;28;20020;-75
2021/06/05 10:19:20;;;;;;;5.15;4.65;;;24.40;99.90;;;;;;5098287;28;20437;-75
2021/06/05 10:21:48;;;;;;;5.95;4.07;;;24.30;99.90;;;;;;5086259;28;20642;-75
2021/06/05 10:24:29;;;;;;;4.47;4.00;;;24.30;99.90;;;;;;5097916;28;20367;-75
2021/06/05 10:26:58;;;;;;;4.65;4.20;;;24.00;99.90;;;;;;5094328;28;20387;-76
2021/06/05 10:29:36;;;;;;;5.00;4.35;;;24.40;99.90;;;;;;5099814;28;20494;-75
2021/06/05 10:32:07;;;;;;;5.75;3.92;;;24.30;99.90;;;;;;5081987;28;20181;-75
2021/06/05 10:34:41;;;;;;;4.47;4.07;;;24.40;99.90;;;;;;5094188;28;20027;-73
2021/06/05 10:37:11;;;;;;;5.53;4.47;;;24.40;99.90;;;;;;5089572;28;20051;-75
2021/06/05 10:39:40;;;;;;;5.45;4.30;;;24.70;99.90;;;;;;5081722;28;20016;-72
2021/06/05 10:42:25;;;;;;;5.53;4.43;;;24.40;99.90;;;;;;5096684;28;20016;-71
2021/06/05 10:44:52;;;;;;;4.65;4.20;;;24.30;99.90;;;;;;5101925;28;20518;-75
2021/06/05 10:47:25;;;;;;;6.35;4.40;;;24.90;99.90;;;;;;5093903;28;20158;-74
2021/06/05 10:50:14;;;;;;;5.10;4.18;;;25.30;99.90;;;;;;5093630;28;20073;-75
2021/06/05 10:52:51;;;;;;;4.53;4.13;;;25.30;99.90;;;;;;5083483;28;20419;-72
2021/06/05 10:55:23;;;;;;;7.00;4.43;;;24.90;99.90;;;;;;5093733;28;20012;-75
2021/06/05 10:58:27;;;;;;;5.45;4.10;;;24.90;99.90;;;;;;5058997;28;20100;-72
2021/06/05 11:01:06;;;;;;;4.68;4.20;;;25.50;99.90;;;;;;5083501;28;20027;-75
2021/06/05 11:03:32;;;;;;;4.75;4.20;;;24.90;99.90;;;;;;5087254;28;20111;-75
2021/06/05 11:06:09;;;;;;;4.85;4.35;;;24.90;99.90;;;;;;5100276;28;20119;-75
2021/06/05 11:08:46;;;;;;;5.80;4.00;;;25.20;99.90;;;;;;5089860;28;20547;-74
2021/06/05 11:11:17;;;;;;;8.45;4.43;;;25.10;99.90;;;;;;5081807;28;20395;-75
2021/06/05 11:13:42;;;;;;;5.43;4.20;;;25.30;99.90;;;;;;5103056;28;20023;-72
2021/06/05 11:16:15;;;;;;;6.35;4.43;;;25.70;99.90;;;;;;5106987;28;20028;-75
2021/06/05 11:18:43;;;;;;;5.07;4.10;;;25.80;99.90;;;;;;5104677;28;20067;-72
2021/06/05 11:21:25;;;;;;;4.53;4.20;;;25.50;99.90;;;;;;5099619;28;20028;-74
2021/06/05 11:23:57;;;;;;;4.55;4.15;;;25.80;99.90;;;;;;5099657;28;20103;-72
2021/06/05 11:26:35;;;;;;;4.65;4.25;;;25.10;99.90;;;;;;5093108;28;20067;-74
2021/06/05 11:29:19;;;;;;;7.38;4.30;;;25.30;99.90;;;;;;5088309;28;20015;-72
2021/06/05 11:31:54;;;;;;;5.53;4.53;;;25.30;99.90;;;;;;5091997;28;20455;-75
2021/06/05 11:34:28;;;;;;;4.53;3.65;;;25.50;99.90;;;;;;5094845;28;20019;-75
2021/06/05 11:37:12;;;;;;;4.80;3.95;;;25.70;99.90;;;;;;5099573;28;20095;-75
2021/06/05 11:39:51;;;;;;;6.78;4.25;;;24.90;99.90;;;;;;5102824;28;20028;-74
2021/06/05 11:42:20;;;;;;;4.97;4.10;;;25.50;99.90;;;;;;5111906;28;20032;-72
2021/06/05 11:45:06;;;;;;;4.13;3.72;;;25.40;99.90;;;;;;5100612;28;20110;-72
2021/06/05 11:47:32;;;;;;;4.55;4.10;;;26.00;99.90;;;;;;5080157;28;20116;-69
2021/06/05 11:50:10;;;;;;;4.63;3.55;;;26.50;99.90;;;;;;5092369;28;20035;-71
2021/06/05 11:53:34;;;;;;;3.90;3.60;;;26.50;99.90;;;;;;5092553;28;20020;-72
2021/06/05 11:56:09;;;;;;;5.45;3.70;;;25.50;99.90;;;;;;4977495;28;20121;-71
2021/06/05 11:58:37;;;;;;;4.95;3.40;;;25.10;99.90;;;;;;5077799;28;20040;-70
2021/06/05 12:01:10;;;;;;;5.07;3.50;;;25.00;99.90;;;;;;5092122;28;20039;-72
2021/06/05 12:03:48;;;;;;;4.00;3.60;;;24.70;99.90;;;;;;5146275;27;20153;-72
2021/06/05 12:06:25;;;;;;;4.22;3.35;;;24.50;99.90;;;;;;5113852;28;20055;-71
2021/06/05 12:09:11;;;;;;;4.00;3.60;;;24.60;99.90;;;;;;5120727;28;20019;-71
2021/06/05 12:11:47;;;;;;;5.22;3.83;;;25.10;99.90;;;;;;5122850;27;20031;-70
2021/06/05 12:14:24;;;;;;;4.55;3.70;;;25.50;99.90;;;;;;5125094;28;20039;-73
2021/06/05 12:16:57;;;;;;;4.43;3.50;;;25.30;99.90;;;;;;5130065;28;20500;-71
2021/06/05 12:19:28;;;;;;;5.07;3.67;;;25.10;99.90;;;;;;5115843;28;20549;-75
2021/06/05 12:21:54;;;;;;;6.90;3.40;;;25.10;99.90;;;;;;5118197;28;20110;-75
2021/06/05 12:24:24;;;;;;;4.28;3.50;;;25.30;99.90;;;;;;5122892;28;20052;-75
2021/06/05 12:26:56;;;;;;;5.32;3.58;;;25.40;99.90;;;;;;5121456;28;20102;-75
2021/06/05 12:29:28;;;;;;;7.80;3.70;;;25.20;99.90;;;;;;5123613;27;20020;-75
2021/06/05 12:31:56;;;;;;;5.03;3.55;;;24.90;99.90;;;;;;5122842;28;20031;-75
2021/06/05 12:34:36;;;;;;;3.97;3.65;;;24.60;99.90;;;;;;5087629;28;20069;-75
2021/06/05 12:37:05;;;;;;;4.15;3.70;;;24.30;99.90;;;;;;5120320;28;20019;-74
2021/06/05 12:39:30;;;;;;;5.25;3.78;;;24.20;99.90;;;;;;5119999;28;20363;-74
2021/06/05 12:41:57;;;;;;;6.68;4.10;;;24.10;99.90;;;;;;5122453;28;20064;-72
2021/06/05 12:44:30;;;;;;;4.20;3.70;;;23.90;99.90;;;;;;5119252;28;20027;-73
2021/06/05 12:46:57;;;;;;;5.20;4.20;;;23.80;99.90;;;;;;5128384;28;20502;-73
2021/06/05 12:49:27;;;;;;;4.57;3.60;;;23.80;99.90;;;;;;5118009;28;20030;-72
2021/06/05 12:51:55;;;;;;;5.85;3.33;;;23.70;99.90;;;;;;5106380;28;20028;-72
2021/06/05 12:54:28;;;;;;;7.22;3.65;;;23.70;99.90;;;;;;5103341;28;20061;-73